Londonderry, Ohio
Current Conditions -  °F | °C
As of 5:34 AM on Monday 22 Dec 2014 (Local Time) from KRZT Reporting Station
Haze Haze  
Wind Chill: 27°   Ceiling: 5000
Heat Index: 27°   Visibility: 5mi
Dew Point: 25°   Wind: 0mph
Humidity: 93%   Direction: NA
Pressure: 30.06"   Gusts: NA
Location:  39.27°N, 82.79°W
Report Text: KRZT 221034Z AUTO 00000KT 5SM BR OVC050 M03/M04 A3006 RMK AO2
Loading
Personal Weather Stations






























Interactive Weather Map New forecast layout! Learn more

10-Day Weather Forecast

Advertisements
Track Severe Weather on mobile